createdAt,value
2023-05-22T00:00:03.497Z,988.2868
2023-05-22T00:02:03.416Z,988.3384
2023-05-22T00:03:03.918Z,988.3023
2023-05-22T00:04:01.660Z,988.3106
2023-05-22T00:05:02.184Z,988.2895
2023-05-22T00:06:01.645Z,988.3199
2023-05-22T00:07:02.118Z,988.1201
2023-05-22T00:08:01.603Z,988.2073
2023-05-22T00:09:03.731Z,988.2516
2023-05-22T00:10:01.551Z,988.2664
2023-05-22T00:11:02.009Z,988.3727
2023-05-22T00:12:01.469Z,988.1944
2023-05-22T00:13:01.916Z,988.2608
2023-05-22T00:14:03.054Z,988.2608
2023-05-22T00:15:03.559Z,988.1013
2023-05-22T00:16:02.998Z,988.2318
2023-05-22T00:17:03.496Z,988.1446
2023-05-22T00:19:01.795Z,988.1885
2023-05-22T00:20:02.213Z,988.2179
2023-05-22T00:21:01.639Z,988.2166
2023-05-22T00:22:03.845Z,988.1574
2023-05-22T00:23:01.596Z,988.128
2023-05-22T00:24:02.087Z,988.1713
2023-05-22T00:25:01.599Z,988.1557
2023-05-22T00:26:03.653Z,988.127
2023-05-22T00:27:01.491Z,988.0841
2023-05-22T00:28:02.054Z,988.262
2023-05-22T00:29:03.178Z,988.127
2023-05-22T00:30:01.962Z,988.1267
2023-05-22T00:31:01.411Z,988.1703
2023-05-22T00:32:03.515Z,988.091
2023-05-22T00:33:03.021Z,988.1353
2023-05-22T00:34:03.459Z,988.2083
2023-05-22T00:36:01.727Z,988.1016
2023-05-22T00:37:03.816Z,988.2809
2023-05-22T00:38:03.261Z,988.2037
2023-05-22T00:39:02.065Z,988.0677
2023-05-22T00:40:01.597Z,988.1414
2023-05-22T00:41:02.051Z,988.1054
2023-05-22T00:42:01.585Z,987.9403
2023-05-22T00:43:02.042Z,988.0648
2023-05-22T00:44:03.180Z,988.117
2023-05-22T00:45:02.031Z,988.191
2023-05-22T00:46:03.140Z,988.1342
2023-05-22T00:47:03.603Z,988.0924
2023-05-22T00:48:03.043Z,988.0934
2023-05-22T00:49:01.832Z,988.073
2023-05-22T00:50:01.309Z,988.0951
2023-05-22T00:51:01.779Z,988.1542
2023-05-22T00:52:03.900Z,988.2063
2023-05-22T00:53:03.318Z,988.0695
2023-05-22T00:54:02.146Z,988.0985
2023-05-22T00:55:03.275Z,988.0193
2023-05-22T00:56:02.132Z,988.1786
2023-05-22T00:57:01.563Z,988.0636
2023-05-22T00:58:02.051Z,987.9485
2023-05-22T00:59:01.500Z,988.1958
2023-05-22T01:00:01.989Z,988.0507
2023-05-22T01:01:01.478Z,988.0507
2023-05-22T01:02:01.959Z,988.2538
2023-05-22T01:03:03.126Z,988.1668
2023-05-22T01:04:02.142Z,988.0379
2023-05-22T01:05:02.960Z,988.183
2023-05-22T01:06:01.804Z,988.0531
2023-05-22T01:07:02.237Z,988.0821
2023-05-22T01:08:01.698Z,988.0241
2023-05-22T01:09:02.189Z,988.039
2023-05-22T01:10:03.332Z,988.0614
2023-05-22T01:11:03.769Z,988.3701
2023-05-22T01:12:01.582Z,988.2492
2023-05-22T01:13:02.060Z,988.2983
2023-05-22T01:14:01.538Z,988.2437
2023-05-22T01:15:03.628Z,988.2005
2023-05-22T01:16:01.548Z,988.2088
2023-05-22T01:17:01.973Z,988.101
2023-05-22T01:18:03.140Z,988.1452
2023-05-22T01:19:01.934Z,988.16
2023-05-22T01:20:01.687Z,988.102
2023-05-22T01:21:01.769Z,988.1093
2023-05-22T01:22:02.919Z,988.1314
2023-05-22T01:23:01.723Z,988.1103
2023-05-22T01:24:02.234Z,988.1475
2023-05-22T01:25:03.307Z,988.1904
2023-05-22T01:26:03.823Z,988.1765
2023-05-22T01:27:03.202Z,988.2752
2023-05-22T01:28:03.732Z,988.2134
2023-05-22T01:29:01.502Z,988.1844
2023-05-22T01:30:03.596Z,988.2655
2023-05-22T01:31:03.053Z,988.2154
2023-05-22T01:32:01.906Z,988.1078
2023-05-22T01:33:01.389Z,988.1588
2023-05-22T01:34:01.942Z,987.9435
2023-05-22T01:35:01.257Z,988.0167
2023-05-22T01:36:01.797Z,988.0746
2023-05-22T01:37:01.246Z,988.0025
2023-05-22T01:38:01.776Z,988.2205
2023-05-22T01:39:02.191Z,988.1556
2023-05-22T01:40:01.726Z,988.1197
2023-05-22T01:41:02.171Z,988.1497
2023-05-22T01:42:03.309Z,988.0559
2023-05-22T01:43:02.101Z,988.049
2023-05-22T01:44:01.606Z,988.0862
2023-05-22T01:45:02.089Z,988.2717
2023-05-22T01:46:01.626Z,988.3148
2023-05-22T01:47:03.614Z,988.0931
2023-05-22T01:48:01.495Z,987.9921
2023-05-22T01:49:01.935Z,988.2531
2023-05-22T01:50:01.415Z,988.0952
2023-05-22T01:51:03.531Z,988.211
2023-05-22T01:52:01.372Z,988.1531
2023-05-22T01:53:03.524Z,988.0814
2023-05-22T01:54:01.297Z,988.1682
2023-05-22T01:55:03.436Z,988.1761
2023-05-22T01:57:03.376Z,988.0607
2023-05-22T01:58:03.847Z,988.0327
2023-05-22T01:59:01.641Z,988.0837
2023-05-22T02:00:02.122Z,988.1127
2023-05-22T02:01:01.664Z,988.0985
2023-05-22T02:02:03.712Z,988.1495
2023-05-22T02:03:03.191Z,988.2091
2023-05-22T02:04:03.601Z,988.1302
2023-05-22T02:05:01.462Z,988.0433
2023-05-22T02:06:01.937Z,988.0657
2023-05-22T02:07:01.387Z,988.0874
2023-05-22T02:08:01.860Z,988.0888
2023-05-22T02:09:01.369Z,988.0609
2023-05-22T02:10:01.827Z,988.025
2023-05-22T02:11:02.896Z,988.025
2023-05-22T02:12:03.435Z,988.1408
2023-05-22T02:13:03.817Z,987.9613
2023-05-22T02:14:03.301Z,988.0054
2023-05-22T02:15:02.084Z,988.0064
2023-05-22T02:16:01.583Z,988.173
2023-05-22T02:17:03.711Z,987.9499
2023-05-22T02:18:03.176Z,987.9499
2023-05-22T02:19:01.990Z,988.0005
2023-05-22T02:20:03.076Z,988.0226
2023-05-22T02:21:01.889Z,987.9867
2023-05-22T02:22:02.991Z,988.0022
2023-05-22T02:23:01.895Z,987.9375
2023-05-22T02:24:01.291Z,988.0532
2023-05-22T02:25:01.746Z,987.9884
2023-05-22T02:26:03.853Z,988.1409
2023-05-22T02:27:01.699Z,988.0834
2023-05-22T02:28:02.191Z,988.0332
2023-05-22T02:29:01.626Z,988.0772
2023-05-22T02:30:02.114Z,988.0332
2023-05-22T02:31:01.614Z,988.0056
2023-05-22T02:32:03.705Z,987.8273
2023-05-22T02:33:01.543Z,987.8342
2023-05-22T02:34:03.604Z,987.912
2023-05-22T02:35:03.084Z,987.87
2023-05-22T02:36:01.954Z,987.8204
2023-05-22T02:37:01.360Z,988.0139
2023-05-22T02:38:02.473Z,987.8493
2023-05-22T02:39:01.280Z,987.7994
2023-05-22T02:40:03.372Z,988.0796
2023-05-22T02:41:03.866Z,987.8005
2023-05-22T02:42:01.657Z,987.9801
2023-05-22T02:43:02.205Z,987.9801
2023-05-22T02:44:03.288Z,987.8087
2023-05-22T02:45:03.753Z,987.9443
2023-05-22T02:46:03.227Z,987.8885
2023-05-22T02:47:02.095Z,987.8896
2023-05-22T02:48:03.183Z,987.9536
2023-05-22T02:49:03.635Z,987.8538
2023-05-22T02:50:03.074Z,987.6887
2023-05-22T02:51:01.911Z,987.818
2023-05-22T02:52:03.027Z,987.818
2023-05-22T02:53:01.839Z,987.7313
2023-05-22T02:54:01.290Z,987.818
2023-05-22T02:55:03.415Z,987.7602
2023-05-22T02:56:03.857Z,987.6598
2023-05-22T02:57:01.701Z,987.8548
2023-05-22T02:58:02.146Z,987.8043
2023-05-22T02:59:03.330Z,987.8469
2023-05-22T03:00:03.794Z,987.9536
2023-05-22T03:01:01.560Z,987.6887
2023-05-22T03:02:02.095Z,987.8276
2023-05-22T03:03:01.568Z,987.8053
2023-05-22T03:04:03.665Z,987.8122
2023-05-22T03:05:03.051Z,987.7475
2023-05-22T03:06:01.812Z,987.785
2023-05-22T03:07:01.318Z,987.8067
2023-05-22T03:08:01.751Z,987.7424
2023-05-22T03:10:03.397Z,987.7076
2023-05-22T03:11:03.860Z,987.7076
2023-05-22T03:12:01.656Z,987.6568
2023-05-22T03:13:03.757Z,987.8094
2023-05-22T03:14:01.535Z,987.7087
2023-05-22T03:15:02.155Z,987.9236
2023-05-22T03:16:01.630Z,987.8679
2023-05-22T03:17:03.744Z,987.861
2023-05-22T03:18:03.242Z,987.7823
2023-05-22T03:19:03.703Z,987.7259
2023-05-22T03:20:01.432Z,987.6833
2023-05-22T03:21:03.537Z,987.7699
2023-05-22T03:22:01.373Z,987.6695
2023-05-22T03:23:01.857Z,988.0356
2023-05-22T03:24:02.968Z,987.8276
2023-05-22T03:25:03.408Z,987.8565
2023-05-22T03:26:02.239Z,987.6905
2023-05-22T03:27:01.720Z,987.7699
2023-05-22T03:28:02.190Z,987.7122
2023-05-22T03:29:01.691Z,987.8276
2023-05-22T03:30:03.781Z,987.7847
2023-05-22T03:31:03.217Z,987.6544
2023-05-22T03:32:02.048Z,987.9642
2023-05-22T03:33:03.227Z,987.7421
2023-05-22T03:34:08.735Z,987.7269
2023-05-22T03:35:01.448Z,987.8276
2023-05-22T03:36:01.928Z,987.6833
2023-05-22T03:37:01.372Z,987.6833
2023-05-22T03:38:01.829Z,987.9191
2023-05-22T03:39:01.351Z,987.7111
2023-05-22T03:40:03.415Z,987.7826
2023-05-22T03:41:03.888Z,987.6956
2023-05-22T03:42:01.693Z,987.6946
2023-05-22T03:43:03.893Z,987.7015
2023-05-22T03:44:01.640Z,987.861
2023-05-22T03:45:02.093Z,987.8321
2023-05-22T03:46:01.624Z,987.7245
2023-05-22T03:47:03.659Z,987.6602
2023-05-22T03:48:03.131Z,987.5599
2023-05-22T03:49:01.958Z,987.6833
2023-05-22T03:50:01.429Z,987.5541
2023-05-22T03:51:03.521Z,987.5692
2023-05-22T03:52:02.964Z,987.6847
2023-05-22T03:53:01.777Z,987.6627
2023-05-22T03:54:02.264Z,987.7424
2023-05-22T03:55:01.732Z,987.5335
2023-05-22T03:56:03.817Z,987.5046
2023-05-22T03:57:01.664Z,987.7562
2023-05-22T03:58:02.140Z,987.6266
2023-05-22T03:59:01.632Z,987.4826
2023-05-22T04:00:03.721Z,987.7204
2023-05-22T04:01:01.570Z,987.5183
2023-05-22T04:02:03.750Z,987.6555
2023-05-22T04:03:01.622Z,987.7562
2023-05-22T04:04:02.034Z,987.4523
2023-05-22T04:05:01.501Z,987.5238
2023-05-22T04:06:01.939Z,987.5815
2023-05-22T04:07:03.057Z,987.5238
2023-05-22T04:08:01.843Z,987.6104
2023-05-22T04:09:01.365Z,987.5433
2023-05-22T04:10:01.806Z,987.4567
2023-05-22T04:11:01.246Z,987.4567
2023-05-22T04:12:01.723Z,987.6588
2023-05-22T04:13:02.227Z,987.5805
2023-05-22T04:14:03.333Z,987.6104
2023-05-22T04:15:02.187Z,987.697
2023-05-22T04:16:03.337Z,987.6682
2023-05-22T04:17:02.101Z,987.5888
2023-05-22T04:18:01.613Z,987.6241
2023-05-22T04:19:02.084Z,987.63
2023-05-22T04:20:03.132Z,987.5639
2023-05-22T04:21:03.626Z,987.7792
2023-05-22T04:22:03.051Z,987.5979
2023-05-22T04:23:03.532Z,987.5539
2023-05-22T04:24:01.350Z,987.6474
2023-05-22T04:25:03.449Z,987.6529
2023-05-22T04:26:01.281Z,987.4933
2023-05-22T04:27:03.399Z,987.5349
2023-05-22T04:28:02.231Z,987.5197
2023-05-22T04:29:03.384Z,987.605
2023-05-22T04:30:02.240Z,987.87
2023-05-22T04:31:03.343Z,987.5657
2023-05-22T04:32:02.136Z,987.5275
2023-05-22T04:33:03.284Z,987.5687
2023-05-22T04:34:02.094Z,987.5388
2023-05-22T04:35:03.198Z,987.682
2023-05-22T04:36:02.065Z,987.4784
2023-05-22T04:37:03.151Z,987.4691
2023-05-22T04:38:02.014Z,987.6923
2023-05-22T04:39:01.482Z,987.6981
2023-05-22T04:40:01.933Z,987.5096
2023-05-22T04:41:01.424Z,987.4586
2023-05-22T04:42:03.531Z,987.3993
2023-05-22T04:43:02.917Z,987.4996
2023-05-22T04:44:01.743Z,987.657
2023-05-22T04:45:02.254Z,987.627
2023-05-22T04:46:01.700Z,987.5181
2023-05-22T04:47:06.007Z,987.5898
2023-05-22T04:48:03.363Z,987.5091
2023-05-22T04:49:02.259Z,987.5608
2023-05-22T04:50:03.163Z,987.4801
2023-05-22T04:51:02.093Z,987.6539
2023-05-22T04:52:01.478Z,987.596
2023-05-22T04:53:03.646Z,987.567
2023-05-22T04:54:03.063Z,987.4939
2023-05-22T04:55:03.303Z,987.4566
2023-05-22T04:56:01.400Z,987.4194
2023-05-22T04:57:01.892Z,987.5563
2023-05-22T04:58:01.327Z,987.4752
2023-05-22T04:59:03.467Z,987.5313
2023-05-22T05:00:02.876Z,987.5441
2023-05-22T05:01:03.392Z,987.5651
2023-05-22T05:02:03.773Z,987.563
2023-05-22T05:03:01.862Z,987.6706
2023-05-22T05:04:04.000Z,987.4815
2023-05-22T05:05:01.570Z,987.3645
2023-05-22T05:06:03.774Z,987.5508
2023-05-22T05:07:03.235Z,987.6201
2023-05-22T05:08:01.958Z,987.6377
2023-05-22T05:09:01.432Z,987.4459
2023-05-22T05:10:01.874Z,987.5885
2023-05-22T05:11:01.350Z,987.5345
2023-05-22T05:12:01.802Z,987.7215
2023-05-22T05:13:01.303Z,987.5462
2023-05-22T05:14:01.734Z,987.5368
2023-05-22T05:15:03.820Z,987.6226
2023-05-22T05:16:03.356Z,987.5427
2023-05-22T05:17:02.135Z,987.5997
2023-05-22T05:18:03.266Z,987.6837
2023-05-22T05:19:02.129Z,987.6384
2023-05-22T05:20:03.126Z,987.7231
2023-05-22T05:21:03.591Z,987.4604
2023-05-22T05:22:01.438Z,987.6117
2023-05-22T05:23:01.892Z,987.5175
2023-05-22T05:24:03.010Z,987.4313
2023-05-22T05:25:03.433Z,987.5757
2023-05-22T05:26:01.284Z,987.5826
2023-05-22T05:27:03.386Z,987.4081
2023-05-22T05:28:02.203Z,987.4219
2023-05-22T05:29:01.657Z,987.3558
2023-05-22T05:30:03.781Z,987.2965
2023-05-22T05:31:03.245Z,987.5125
2023-05-22T05:32:03.696Z,987.5333
2023-05-22T05:33:01.542Z,987.5904
2023-05-22T05:34:03.647Z,987.597
2023-05-22T05:35:03.052Z,987.5959
2023-05-22T05:36:02.483Z,987.5865
2023-05-22T05:37:03.257Z,987.5338
2023-05-22T05:38:03.442Z,987.575
2023-05-22T05:39:02.245Z,987.5514
2023-05-22T05:40:01.773Z,987.4848
2023-05-22T05:41:03.818Z,987.4532
2023-05-22T05:42:03.297Z,987.4635
2023-05-22T05:43:03.767Z,987.4693
2023-05-22T05:44:01.570Z,987.5167
2023-05-22T05:45:02.009Z,987.5445
2023-05-22T05:46:03.227Z,987.366
2023-05-22T05:47:03.614Z,987.486
2023-05-22T05:48:03.110Z,987.6359
2023-05-22T05:49:03.556Z,987.4879
2023-05-22T05:50:01.346Z,987.6153
2023-05-22T05:51:01.795Z,987.518
2023-05-22T05:52:02.932Z,987.464
2023-05-22T05:53:03.378Z,987.3958
2023-05-22T05:54:03.884Z,987.5032
2023-05-22T05:55:01.600Z,987.3984
2023-05-22T05:56:02.122Z,987.3732
2023-05-22T05:57:01.530Z,987.5099
2023-05-22T05:58:02.018Z,987.4712
2023-05-22T05:59:01.500Z,987.3166
2023-05-22T06:00:03.579Z,987.4091
2023-05-22T06:01:03.019Z,987.422
2023-05-22T06:02:01.885Z,987.4341
2023-05-22T06:03:02.972Z,987.4821
2023-05-22T06:04:03.588Z,987.6179
2023-05-22T06:05:02.238Z,987.3812
2023-05-22T06:06:01.776Z,987.5477
2023-05-22T06:07:03.796Z,987.4511
2023-05-22T06:08:01.603Z,987.4559
2023-05-22T06:09:02.062Z,987.4827
2023-05-22T06:10:03.208Z,987.4827
2023-05-22T06:11:02.014Z,987.438
2023-05-22T06:12:01.492Z,987.348
2023-05-22T06:13:03.504Z,987.3897
2023-05-22T06:14:03.089Z,987.4752
2023-05-22T06:15:03.434Z,987.6025
2023-05-22T06:17:01.748Z,987.3694
2023-05-22T06:18:02.250Z,987.358
2023-05-22T06:19:01.668Z,987.4285
2023-05-22T06:20:03.794Z,987.4554
2023-05-22T06:21:03.247Z,987.4976
2023-05-22T06:22:02.051Z,987.3842
2023-05-22T06:23:03.200Z,987.2197
2023-05-22T06:24:02.006Z,987.3876
2023-05-22T06:25:03.065Z,987.3417
2023-05-22T06:26:03.574Z,987.3781
2023-05-22T06:27:02.962Z,987.4802
2023-05-22T06:28:03.419Z,987.244
2023-05-22T06:29:02.218Z,987.2792
2023-05-22T06:30:01.700Z,987.3811
2023-05-22T06:31:02.141Z,987.3267
2023-05-22T06:32:03.343Z,987.1999
2023-05-22T06:33:03.773Z,987.1326
2023-05-22T06:34:01.695Z,987.1741
2023-05-22T06:35:02.010Z,987.187
2023-05-22T06:36:01.527Z,987.2245
2023-05-22T06:37:01.950Z,987.1575
2023-05-22T06:38:03.096Z,987.2164
2023-05-22T06:39:01.879Z,987.1921
2023-05-22T06:40:01.384Z,987.389
2023-05-22T06:41:01.823Z,987.2403
2023-05-22T06:42:02.965Z,987.2403
2023-05-22T06:43:01.783Z,987.1579
2023-05-22T06:44:02.247Z,987.2731
2023-05-22T06:45:03.351Z,987.1976
2023-05-22T06:46:03.877Z,987.1287
2023-05-22T06:47:03.275Z,987.265
2023-05-22T06:48:02.154Z,987.1648
2023-05-22T06:49:01.542Z,987.3535
2023-05-22T06:50:02.067Z,987.1972
2023-05-22T06:51:01.515Z,987.3635
2023-05-22T06:52:04.484Z,987.2595
2023-05-22T06:53:03.079Z,987.2204
2023-05-22T06:54:01.883Z,987.1378
2023-05-22T06:55:01.322Z,987.0987
2023-05-22T06:56:01.834Z,987.2156
2023-05-22T06:58:03.395Z,987.1997
2023-05-22T06:59:02.165Z,987.1901
2023-05-22T07:00:03.292Z,987.161
2023-05-22T07:01:03.734Z,987.1075
2023-05-22T07:02:01.544Z,987.0823
2023-05-22T07:03:02.019Z,987.2064
2023-05-22T07:04:01.547Z,987.2773
2023-05-22T07:05:01.946Z,987.3053
2023-05-22T07:06:01.456Z,987.1521
2023-05-22T07:07:03.501Z,987.2942
2023-05-22T07:08:01.310Z,987.2503
2023-05-22T07:09:03.433Z,987.2503
2023-05-22T07:10:03.870Z,987.1532
2023-05-22T07:11:01.695Z,987.36
2023-05-22T07:12:02.155Z,987.0553
2023-05-22T07:13:03.259Z,987.2152
2023-05-22T07:14:02.092Z,987.1624
2023-05-22T07:15:01.500Z,987.0793
2023-05-22T07:16:02.035Z,987.1583
2023-05-22T07:17:01.466Z,987.1206
2023-05-22T07:18:02.066Z,987.1927
2023-05-22T07:19:03.053Z,987.1601
2023-05-22T07:20:03.473Z,987.0122
2023-05-22T07:21:03.026Z,987.159
2023-05-22T07:22:01.773Z,987.2466
2023-05-22T07:23:04.384Z,987.2156
2023-05-22T07:24:03.440Z,987.1553
2023-05-22T07:25:03.893Z,987.0129
2023-05-22T07:26:01.690Z,987.1316
2023-05-22T07:27:02.164Z,987.1031
2023-05-22T07:28:03.246Z,986.9175
2023-05-22T07:29:02.066Z,986.9966
2023-05-22T07:30:03.187Z,986.9596
2023-05-22T07:31:02.000Z,987.0203
2023-05-22T07:32:01.556Z,986.9353
2023-05-22T07:33:01.985Z,987.2466
2023-05-22T07:34:01.464Z,986.8928
2023-05-22T07:35:01.838Z,987.1294
2023-05-22T07:36:01.351Z,986.952
2023-05-22T07:37:01.793Z,986.952
2023-05-22T07:38:02.887Z,986.9294
2023-05-22T07:39:01.755Z,986.9956
2023-05-22T07:40:03.817Z,986.9578
2023-05-22T07:41:01.664Z,986.9956
2023-05-22T07:42:02.233Z,987.1294
2023-05-22T07:43:01.560Z,987.0488
2023-05-22T07:44:03.752Z,986.9195
2023-05-22T07:45:01.539Z,987.0389
2023-05-22T07:46:01.993Z,987.1487
2023-05-22T07:47:03.078Z,986.9561
2023-05-22T07:48:03.583Z,987.0056
2023-05-22T07:49:03.007Z,986.9804
2023-05-22T07:50:01.840Z,986.9493
2023-05-22T07:51:01.272Z,986.9042
2023-05-22T07:52:01.762Z,987.0214
2023-05-22T07:53:02.203Z,986.9977
2023-05-22T07:54:03.302Z,986.9148
2023-05-22T07:55:03.735Z,986.9207
2023-05-22T07:56:01.587Z,986.9165
2023-05-22T07:57:02.053Z,986.9279
2023-05-22T07:58:03.208Z,986.9364
2023-05-22T07:59:02.576Z,986.9349
2023-05-22T08:00:01.464Z,986.9057
2023-05-22T08:01:01.960Z,987.133
2023-05-22T08:02:03.114Z,986.7748
2023-05-22T08:03:01.881Z,986.8622
2023-05-22T08:04:01.582Z,986.8147
2023-05-22T08:05:01.842Z,986.9032
2023-05-22T08:06:02.920Z,986.9684
2023-05-22T08:07:03.345Z,986.8401
2023-05-22T08:08:02.179Z,986.9112
2023-05-22T08:09:01.650Z,986.8648
2023-05-22T08:10:03.719Z,986.811
2023-05-22T08:11:04.168Z,986.8648
2023-05-22T08:12:02.073Z,986.8648
2023-05-22T08:13:03.142Z,986.8211
2023-05-22T08:14:01.936Z,986.8773
2023-05-22T08:15:01.463Z,986.9211
2023-05-22T08:16:03.605Z,986.8914
2023-05-22T08:17:01.434Z,986.8083
2023-05-22T08:18:01.844Z,986.7025
2023-05-22T08:19:01.424Z,986.7818
2023-05-22T08:20:03.550Z,986.8752
2023-05-22T08:21:02.214Z,986.8745
2023-05-22T08:22:01.693Z,986.7894
2023-05-22T08:23:02.194Z,986.8093
2023-05-22T08:24:03.276Z,986.7828
2023-05-22T08:25:02.062Z,986.8325
2023-05-22T08:26:01.566Z,986.8243
2023-05-22T08:27:03.673Z,986.8525
2023-05-22T08:28:01.499Z,986.6742
2023-05-22T08:29:01.953Z,986.9034
2023-05-22T08:30:03.059Z,986.8119
2023-05-22T08:31:03.563Z,986.9125
2023-05-22T08:32:01.448Z,986.6821
2023-05-22T08:33:01.883Z,986.7756
2023-05-22T08:34:01.355Z,986.8496
2023-05-22T08:35:03.469Z,987.0403
2023-05-22T08:36:01.282Z,986.6598
2023-05-22T08:37:03.433Z,986.7675
2023-05-22T08:38:02.216Z,986.6403
2023-05-22T08:39:01.674Z,986.7582
2023-05-22T08:40:03.797Z,986.6939
2023-05-22T08:41:01.599Z,986.8948
2023-05-22T08:42:02.047Z,986.8784
2023-05-22T08:43:01.555Z,986.8902
2023-05-22T08:44:03.630Z,986.7524
2023-05-22T08:45:01.472Z,986.7684
2023-05-22T08:46:01.959Z,986.6509
2023-05-22T08:47:01.568Z,986.7371
2023-05-22T08:48:03.556Z,986.6238
2023-05-22T08:49:03.019Z,986.743
2023-05-22T08:50:01.823Z,986.6066
2023-05-22T08:51:01.309Z,986.6352
2023-05-22T08:52:01.754Z,986.6694
2023-05-22T08:53:02.238Z,986.6156
2023-05-22T08:54:03.308Z,986.6286
2023-05-22T08:55:02.151Z,986.6769
2023-05-22T08:56:03.286Z,986.609
2023-05-22T08:57:02.073Z,986.7197
2023-05-22T08:58:01.522Z,986.609
2023-05-22T08:59:02.006Z,986.6459
2023-05-22T09:00:01.459Z,986.7758
2023-05-22T09:01:02.089Z,986.6706
2023-05-22T09:02:01.419Z,986.5968
2023-05-22T09:03:02.014Z,986.5059
2023-05-22T09:04:01.389Z,986.567
2023-05-22T09:05:01.817Z,986.564
2023-05-22T09:06:03.913Z,986.5311
2023-05-22T09:07:01.736Z,986.7197
2023-05-22T09:08:16.203Z,986.5992
2023-05-22T09:09:03.336Z,986.5484
2023-05-22T09:10:03.765Z,986.6263
2023-05-22T09:11:01.604Z,986.7444
2023-05-22T09:12:02.014Z,986.4478
2023-05-22T09:13:01.531Z,986.5228
2023-05-22T09:14:03.633Z,986.7444
2023-05-22T09:15:01.437Z,986.5625
2023-05-22T09:16:01.898Z,986.5976
2023-05-22T09:17:01.468Z,986.5752
2023-05-22T09:18:02.038Z,986.6632
2023-05-22T09:19:02.996Z,986.6632
2023-05-22T09:20:01.754Z,986.4019
2023-05-22T09:21:02.718Z,986.5568
2023-05-22T09:22:01.722Z,986.4859
2023-05-22T09:23:02.207Z,986.5568
2023-05-22T09:24:03.308Z,986.4914
2023-05-22T09:25:03.896Z,986.4898
2023-05-22T09:26:03.175Z,986.4207
2023-05-22T09:27:02.013Z,986.425
2023-05-22T09:28:03.015Z,986.4933
2023-05-22T09:29:03.533Z,986.5631
2023-05-22T09:30:02.988Z,986.613
2023-05-22T09:31:03.930Z,986.5035
2023-05-22T09:32:03.890Z,986.5479
2023-05-22T09:33:01.856Z,986.4497
2023-05-22T09:34:03.817Z,986.3231
2023-05-22T09:35:03.297Z,986.4725
2023-05-22T09:36:02.106Z,986.4894
2023-05-22T09:37:01.538Z,986.4823
2023-05-22T09:38:02.009Z,986.4254
2023-05-22T09:39:01.476Z,986.4026
2023-05-22T09:40:01.932Z,986.4226
2023-05-22T09:41:01.416Z,986.4595
2023-05-22T09:42:01.883Z,986.4776
2023-05-22T09:43:02.924Z,986.4764
2023-05-22T09:44:02.275Z,986.4525
2023-05-22T09:45:02.229Z,986.5479
2023-05-22T09:46:03.344Z,986.5216
2023-05-22T09:47:02.115Z,986.5035
2023-05-22T09:48:03.244Z,986.5632
2023-05-22T09:49:02.040Z,986.4126
2023-05-22T09:50:03.144Z,986.3089
2023-05-22T09:51:01.917Z,986.5847
2023-05-22T09:52:02.990Z,986.4111
2023-05-22T09:53:03.528Z,986.4618
2023-05-22T09:54:01.281Z,986.5444
2023-05-22T09:55:03.427Z,986.4127
2023-05-22T09:56:02.228Z,986.3829
2023-05-22T09:57:01.703Z,986.2634
2023-05-22T09:58:03.774Z,986.542
2023-05-22T09:59:03.254Z,986.3558
2023-05-22T10:00:03.725Z,986.4297
2023-05-22T10:01:03.172Z,986.441
2023-05-22T10:02:02.083Z,986.5503
2023-05-22T10:03:03.119Z,986.432
2023-05-22T10:04:01.913Z,986.5847
2023-05-22T10:05:03.021Z,986.3219
2023-05-22T10:06:03.436Z,986.4127
2023-05-22T10:07:03.913Z,986.4567
2023-05-22T10:08:01.695Z,986.5039
2023-05-22T10:09:02.209Z,986.4741
2023-05-22T10:10:01.621Z,986.4139
2023-05-22T10:11:02.159Z,986.4525
2023-05-22T10:12:03.219Z,986.4764
2023-05-22T10:13:03.697Z,986.3582
2023-05-22T10:14:01.512Z,986.4179
2023-05-22T10:15:01.995Z,986.3582
2023-05-22T10:16:03.108Z,986.385
2023-05-22T10:17:01.942Z,986.2916
2023-05-22T10:18:03.058Z,986.3085
2023-05-22T10:19:01.853Z,986.3666
2023-05-22T10:20:01.271Z,986.3214
2023-05-22T10:21:01.790Z,986.3513
2023-05-22T10:22:02.866Z,986.338
2023-05-22T10:23:03.313Z,986.3466
2023-05-22T10:24:03.796Z,986.4047
2023-05-22T10:25:01.591Z,986.2642
2023-05-22T10:26:02.038Z,986.4004
2023-05-22T10:27:03.215Z,986.2466
2023-05-22T10:28:01.964Z,986.2313
2023-05-22T10:29:01.475Z,986.2396
2023-05-22T10:30:01.899Z,986.1741
2023-05-22T10:31:01.403Z,986.3091
2023-05-22T10:32:01.878Z,986.1898
2023-05-22T10:33:01.426Z,986.2337
2023-05-22T10:34:01.920Z,986.2611
2023-05-22T10:35:02.935Z,986.2648
2023-05-22T10:36:01.699Z,986.3119
2023-05-22T10:37:17.146Z,986.2539
2023-05-22T10:38:01.588Z,986.2889
2023-05-22T10:39:02.106Z,986.1246
2023-05-22T10:40:01.514Z,986.1627
2023-05-22T10:41:02.020Z,986.2889
2023-05-22T10:42:03.142Z,986.1909
2023-05-22T10:43:01.955Z,986.3473
2023-05-22T10:44:01.384Z,986.2621
2023-05-22T10:45:01.888Z,986.303
2023-05-22T10:46:01.350Z,986.2873
2023-05-22T10:47:03.489Z,986.1896
2023-05-22T10:49:03.343Z,986.2492
2023-05-22T10:50:02.169Z,986.1371
2023-05-22T10:51:03.288Z,986.2082
2023-05-22T10:52:02.143Z,986.2521
2023-05-22T10:53:01.590Z,986.3187
2023-05-22T10:54:03.714Z,986.2293
2023-05-22T10:55:01.544Z,986.2575
2023-05-22T10:56:03.669Z,986.1544
2023-05-22T10:57:03.138Z,986.1387
2023-05-22T10:58:05.133Z,986.1896
2023-05-22T10:59:01.855Z,986.123
2023-05-22T11:00:01.360Z,986.1399
2023-05-22T11:01:01.822Z,986.1854
2023-05-22T11:02:01.334Z,986.089
2023-05-22T11:03:17.177Z,986.1216
2023-05-22T11:04:02.251Z,986.2436
2023-05-22T11:05:01.781Z,986.0963
2023-05-22T11:06:03.827Z,986.1571
2023-05-22T11:07:01.670Z,986.1939
2023-05-22T11:08:02.116Z,986.0748
2023-05-22T11:09:01.579Z,986.1203
2023-05-22T11:10:02.054Z,986.031
2023-05-22T11:11:03.159Z,986.1547
2023-05-22T11:12:03.650Z,986.1547
2023-05-22T11:13:01.415Z,985.957
2023-05-22T11:14:01.889Z,986.2066
2023-05-22T11:15:01.414Z,986.0858
2023-05-22T11:16:01.840Z,986.128
2023-05-22T11:17:01.347Z,986.1495
2023-05-22T11:18:01.832Z,986.0829
2023-05-22T11:19:10.485Z,985.9611
2023-05-22T11:20:01.964Z,985.9739
2023-05-22T11:21:02.210Z,986.2331
2023-05-22T11:22:01.695Z,986.0405
2023-05-22T11:23:02.168Z,985.9669
2023-05-22T11:24:03.298Z,986.1314
2023-05-22T11:25:03.704Z,986.0248
2023-05-22T11:26:01.574Z,985.9855
2023-05-22T11:27:02.034Z,986.1547
2023-05-22T11:28:01.485Z,986.1547
2023-05-22T11:29:03.595Z,986.0702
2023-05-22T11:30:01.426Z,985.9908
2023-05-22T11:31:01.920Z,985.9516
2023-05-22T11:32:03.019Z,986.1215
2023-05-22T11:33:03.486Z,986.0521
2023-05-22T11:34:01.901Z,986.1547
2023-05-22T11:35:01.767Z,986.0368
2023-05-22T11:36:02.211Z,985.9756
2023-05-22T11:37:01.768Z,985.811
2023-05-22T11:38:02.144Z,985.9558
2023-05-22T11:39:01.607Z,985.842
2023-05-22T11:40:02.121Z,985.9459
2023-05-22T11:41:01.596Z,985.825
2023-05-22T11:42:02.079Z,985.9653
2023-05-22T11:43:03.165Z,985.8379
2023-05-22T11:44:01.990Z,985.8962
2023-05-22T11:45:03.109Z,985.8379
2023-05-22T11:46:03.599Z,985.8093
2023-05-22T11:47:01.353Z,985.8846
2023-05-22T11:48:03.462Z,985.9285
2023-05-22T11:49:03.938Z,985.8081
2023-05-22T11:50:03.401Z,985.8888
2023-05-22T11:51:02.196Z,985.6731
2023-05-22T11:52:01.676Z,985.6918
2023-05-22T11:53:02.134Z,985.9285
2023-05-22T11:54:01.626Z,985.8404